Fiatt, Illinois
Current Conditions -  °F | °C
As of 3:55 AM on Monday 22 Dec 2014 (Local Time) from KMQB Reporting Station
Overcast Overcast  
Wind Chill: -2°   Ceiling: 6000
Heat Index:   Visibility: 7mi
Dew Point:   Wind: 13mph
Humidity: 87%   Direction: 130°SE
Pressure: 29.86"   Gusts: NA
Location:  40.56°N, 90.18°W
Report Text: KMQB 220955Z AUTO 13011KT 7SM SCT045 OVC060 03/01 A2986 RMK AO2 T00270007
Loading
Personal Weather Stations






























Interactive Weather Map New forecast layout! Learn more

10-Day Weather Forecast

Advertisements
Track Severe Weather on mobile